sensor_id;sensor_type;location;lat;lon;timestamp;P1;durP1;ratioP1;P2;durP2;ratioP2
36233;SDS011;43467;50.890;5.982;2022-11-20T00:00:52;26.52;;;17.73;;
36233;SDS011;43467;50.890;5.982;2022-11-20T00:03:18;29.77;;;18.65;;
36233;SDS011;43467;50.890;5.982;2022-11-20T00:05:44;30.08;;;19.48;;
36233;SDS011;43467;50.890;5.982;2022-11-20T00:08:09;29.95;;;19.02;;
36233;SDS011;43467;50.890;5.982;2022-11-20T00:10:38;33.05;;;21.00;;
36233;SDS011;43467;50.890;5.982;2022-11-20T00:13:04;35.10;;;19.60;;
36233;SDS011;43467;50.890;5.982;2022-11-20T00:15:30;32.08;;;19.08;;
36233;SDS011;43467;50.890;5.982;2022-11-20T00:17:56;32.53;;;19.92;;
36233;SDS011;43467;50.890;5.982;2022-11-20T00:20:21;32.28;;;19.38;;
36233;SDS011;43467;50.890;5.982;2022-11-20T00:22:47;30.90;;;19.08;;
36233;SDS011;43467;50.890;5.982;2022-11-20T00:25:12;31.00;;;19.83;;
36233;SDS011;43467;50.890;5.982;2022-11-20T00:27:37;27.45;;;18.38;;
36233;SDS011;43467;50.890;5.982;2022-11-20T00:30:03;29.65;;;18.67;;
36233;SDS011;43467;50.890;5.982;2022-11-20T00:32:30;26.45;;;17.73;;
36233;SDS011;43467;50.890;5.982;2022-11-20T00:34:55;26.60;;;17.50;;
36233;SDS011;43467;50.890;5.982;2022-11-20T00:37:20;28.05;;;18.27;;
36233;SDS011;43467;50.890;5.982;2022-11-20T00:39:46;29.00;;;18.50;;
36233;SDS011;43467;50.890;5.982;2022-11-20T00:42:12;26.95;;;18.02;;
36233;SDS011;43467;50.890;5.982;2022-11-20T00:44:37;30.33;;;18.52;;
36233;SDS011;43467;50.890;5.982;2022-11-20T00:47:03;23.73;;;16.48;;
36233;SDS011;43467;50.890;5.982;2022-11-20T00:49:28;24.25;;;16.80;;
36233;SDS011;43467;50.890;5.982;2022-11-20T00:51:53;26.45;;;17.70;;
36233;SDS011;43467;50.890;5.982;2022-11-20T00:54:19;29.73;;;18.38;;
36233;SDS011;43467;50.890;5.982;2022-11-20T00:56:44;25.38;;;16.60;;
36233;SDS011;43467;50.890;5.982;2022-11-20T00:59:10;28.02;;;17.63;;
36233;SDS011;43467;50.890;5.982;2022-11-20T01:01:36;27.30;;;17.67;;
36233;SDS011;43467;50.890;5.982;2022-11-20T01:04:02;27.45;;;17.67;;
36233;SDS011;43467;50.890;5.982;2022-11-20T01:08:55;26.25;;;17.58;;
36233;SDS011;43467;50.890;5.982;2022-11-20T01:11:27;25.38;;;17.70;;
36233;SDS011;43467;50.890;5.982;2022-11-20T01:13:55;29.52;;;17.33;;
36233;SDS011;43467;50.890;5.982;2022-11-20T01:16:30;29.15;;;18.63;;
36233;SDS011;43467;50.890;5.982;2022-11-20T01:18:58;26.13;;;17.08;;
36233;SDS011;43467;50.890;5.982;2022-11-20T01:21:27;29.30;;;17.80;;
36233;SDS011;43467;50.890;5.982;2022-11-20T01:23:57;31.63;;;18.00;;
36233;SDS011;43467;50.890;5.982;2022-11-20T01:26:27;26.60;;;18.67;;
36233;SDS011;43467;50.890;5.982;2022-11-20T01:28:57;30.95;;;19.30;;
36233;SDS011;43467;50.890;5.982;2022-11-20T01:31:27;28.70;;;18.80;;
36233;SDS011;43467;50.890;5.982;2022-11-20T01:33:58;30.23;;;18.73;;
36233;SDS011;43467;50.890;5.982;2022-11-20T01:36:26;25.70;;;17.65;;
36233;SDS011;43467;50.890;5.982;2022-11-20T01:38:57;25.55;;;17.35;;
36233;SDS011;43467;50.890;5.982;2022-11-20T01:41:24;22.95;;;16.30;;
36233;SDS011;43467;50.890;5.982;2022-11-20T01:44:10;24.48;;;16.92;;
36233;SDS011;43467;50.890;5.982;2022-11-20T01:46:42;25.10;;;17.35;;
36233;SDS011;43467;50.890;5.982;2022-11-20T01:49:48;25.77;;;17.83;;
36233;SDS011;43467;50.890;5.982;2022-11-20T01:52:16;25.92;;;17.85;;
36233;SDS011;43467;50.890;5.982;2022-11-20T01:54:49;27.02;;;17.63;;
36233;SDS011;43467;50.890;5.982;2022-11-20T01:57:19;25.50;;;17.07;;
36233;SDS011;43467;50.890;5.982;2022-11-20T01:59:49;29.15;;;16.45;;
36233;SDS011;43467;50.890;5.982;2022-11-20T02:02:19;28.25;;;18.23;;
36233;SDS011;43467;50.890;5.982;2022-11-20T02:04:46;26.17;;;17.50;;
36233;SDS011;43467;50.890;5.982;2022-11-20T02:07:12;25.80;;;16.98;;
36233;SDS011;43467;50.890;5.982;2022-11-20T02:09:38;26.33;;;17.25;;
36233;SDS011;43467;50.890;5.982;2022-11-20T02:12:04;26.02;;;17.38;;
36233;SDS011;43467;50.890;5.982;2022-11-20T02:14:29;26.67;;;17.67;;
36233;SDS011;43467;50.890;5.982;2022-11-20T02:16:55;27.13;;;18.33;;
36233;SDS011;43467;50.890;5.982;2022-11-20T02:22:14;32.50;;;21.58;;
36233;SDS011;43467;50.890;5.982;2022-11-20T02:24:44;43.25;;;25.90;;
36233;SDS011;43467;50.890;5.982;2022-11-20T02:27:12;44.85;;;25.35;;
36233;SDS011;43467;50.890;5.982;2022-11-20T02:29:40;47.83;;;28.17;;
36233;SDS011;43467;50.890;5.982;2022-11-20T02:32:19;36.40;;;22.42;;
36233;SDS011;43467;50.890;5.982;2022-11-20T02:34:51;35.53;;;21.10;;
36233;SDS011;43467;50.890;5.982;2022-11-20T02:37:16;31.85;;;20.20;;
36233;SDS011;43467;50.890;5.982;2022-11-20T02:39:44;41.65;;;23.85;;
36233;SDS011;43467;50.890;5.982;2022-11-20T02:42:11;36.70;;;22.13;;
36233;SDS011;43467;50.890;5.982;2022-11-20T02:44:36;36.45;;;23.42;;
36233;SDS011;43467;50.890;5.982;2022-11-20T02:47:02;34.50;;;20.23;;
36233;SDS011;43467;50.890;5.982;2022-11-20T02:49:27;33.47;;;20.52;;
36233;SDS011;43467;50.890;5.982;2022-11-20T02:51:52;30.95;;;20.20;;
36233;SDS011;43467;50.890;5.982;2022-11-20T02:54:18;32.00;;;20.67;;
36233;SDS011;43467;50.890;5.982;2022-11-20T02:56:43;32.72;;;20.95;;
36233;SDS011;43467;50.890;5.982;2022-11-20T02:59:09;32.63;;;21.35;;
36233;SDS011;43467;50.890;5.982;2022-11-20T03:01:34;31.38;;;20.55;;
36233;SDS011;43467;50.890;5.982;2022-11-20T03:04:00;30.30;;;19.42;;
36233;SDS011;43467;50.890;5.982;2022-11-20T03:06:26;33.75;;;20.30;;
36233;SDS011;43467;50.890;5.982;2022-11-20T03:08:51;36.35;;;22.08;;
36233;SDS011;43467;50.890;5.982;2022-11-20T03:11:16;29.63;;;19.77;;
36233;SDS011;43467;50.890;5.982;2022-11-20T03:13:42;27.42;;;18.77;;
36233;SDS011;43467;50.890;5.982;2022-11-20T03:16:09;27.17;;;19.05;;
36233;SDS011;43467;50.890;5.982;2022-11-20T03:18:36;28.40;;;19.00;;
36233;SDS011;43467;50.890;5.982;2022-11-20T03:21:02;27.95;;;18.10;;
36233;SDS011;43467;50.890;5.982;2022-11-20T03:23:28;29.05;;;19.10;;
36233;SDS011;43467;50.890;5.982;2022-11-20T03:25:56;31.13;;;19.83;;
36233;SDS011;43467;50.890;5.982;2022-11-20T03:28:21;26.95;;;18.10;;
36233;SDS011;43467;50.890;5.982;2022-11-20T03:30:46;29.15;;;20.30;;
36233;SDS011;43467;50.890;5.982;2022-11-20T03:33:12;30.52;;;18.92;;
36233;SDS011;43467;50.890;5.982;2022-11-20T03:35:37;28.90;;;19.25;;
36233;SDS011;43467;50.890;5.982;2022-11-20T03:38:03;33.80;;;21.17;;
36233;SDS011;43467;50.890;5.982;2022-11-20T03:40:28;30.05;;;19.42;;
36233;SDS011;43467;50.890;5.982;2022-11-20T03:42:53;29.10;;;19.67;;
36233;SDS011;43467;50.890;5.982;2022-11-20T03:45:19;27.88;;;19.40;;
36233;SDS011;43467;50.890;5.982;2022-11-20T03:47:44;28.10;;;19.27;;
36233;SDS011;43467;50.890;5.982;2022-11-20T03:50:11;32.45;;;19.20;;
36233;SDS011;43467;50.890;5.982;2022-11-20T03:52:39;27.02;;;19.15;;
36233;SDS011;43467;50.890;5.982;2022-11-20T03:55:05;26.23;;;17.95;;
36233;SDS011;43467;50.890;5.982;2022-11-20T03:57:32;27.58;;;17.52;;
36233;SDS011;43467;50.890;5.982;2022-11-20T03:59:57;29.48;;;18.70;;
36233;SDS011;43467;50.890;5.982;2022-11-20T04:02:22;26.33;;;18.52;;
36233;SDS011;43467;50.890;5.982;2022-11-20T04:04:48;30.77;;;19.63;;
36233;SDS011;43467;50.890;5.982;2022-11-20T04:07:13;28.75;;;18.35;;
36233;SDS011;43467;50.890;5.982;2022-11-20T04:09:38;27.92;;;18.30;;
36233;SDS011;43467;50.890;5.982;2022-11-20T04:12:05;28.70;;;19.17;;
36233;SDS011;43467;50.890;5.982;2022-11-20T04:14:31;31.48;;;19.10;;
36233;SDS011;43467;50.890;5.982;2022-11-20T04:20:16;29.85;;;18.70;;
36233;SDS011;43467;50.890;5.982;2022-11-20T04:22:42;31.05;;;19.33;;
36233;SDS011;43467;50.890;5.982;2022-11-20T04:25:09;31.00;;;19.63;;
36233;SDS011;43467;50.890;5.982;2022-11-20T04:27:35;26.05;;;17.60;;
36233;SDS011;43467;50.890;5.982;2022-11-20T04:30:03;31.05;;;19.13;;
36233;SDS011;43467;50.890;5.982;2022-11-20T04:32:30;28.50;;;19.52;;
36233;SDS011;43467;50.890;5.982;2022-11-20T04:35:06;34.17;;;20.83;;
36233;SDS011;43467;50.890;5.982;2022-11-20T04:37:32;30.80;;;19.30;;
36233;SDS011;43467;50.890;5.982;2022-11-20T04:40:00;28.58;;;19.30;;
36233;SDS011;43467;50.890;5.982;2022-11-20T04:42:27;29.33;;;19.63;;
36233;SDS011;43467;50.890;5.982;2022-11-20T04:44:53;28.73;;;18.15;;
36233;SDS011;43467;50.890;5.982;2022-11-20T04:47:18;29.08;;;18.98;;
36233;SDS011;43467;50.890;5.982;2022-11-20T04:49:44;30.15;;;20.23;;
36233;SDS011;43467;50.890;5.982;2022-11-20T04:52:09;32.08;;;19.85;;
36233;SDS011;43467;50.890;5.982;2022-11-20T04:54:34;37.55;;;22.45;;
36233;SDS011;43467;50.890;5.982;2022-11-20T04:57:00;36.10;;;20.67;;
36233;SDS011;43467;50.890;5.982;2022-11-20T04:59:25;41.97;;;23.05;;
36233;SDS011;43467;50.890;5.982;2022-11-20T05:01:50;32.30;;;20.88;;
36233;SDS011;43467;50.890;5.982;2022-11-20T05:04:16;39.60;;;21.80;;
36233;SDS011;43467;50.890;5.982;2022-11-20T05:06:41;29.35;;;18.85;;
36233;SDS011;43467;50.890;5.982;2022-11-20T05:09:06;40.17;;;21.90;;
36233;SDS011;43467;50.890;5.982;2022-11-20T05:11:32;38.25;;;21.08;;
36233;SDS011;43467;50.890;5.982;2022-11-20T05:13:58;46.75;;;24.00;;
36233;SDS011;43467;50.890;5.982;2022-11-20T05:16:24;37.85;;;21.92;;
36233;SDS011;43467;50.890;5.982;2022-11-20T05:18:50;35.38;;;20.50;;
36233;SDS011;43467;50.890;5.982;2022-11-20T05:21:17;32.65;;;19.60;;
36233;SDS011;43467;50.890;5.982;2022-11-20T05:23:43;33.85;;;19.20;;
36233;SDS011;43467;50.890;5.982;2022-11-20T05:26:13;35.85;;;20.90;;
36233;SDS011;43467;50.890;5.982;2022-11-20T05:28:43;35.58;;;21.15;;
36233;SDS011;43467;50.890;5.982;2022-11-20T05:31:11;35.42;;;21.08;;
36233;SDS011;43467;50.890;5.982;2022-11-20T05:33:39;32.88;;;19.42;;
36233;SDS011;43467;50.890;5.982;2022-11-20T05:36:07;40.67;;;22.55;;
36233;SDS011;43467;50.890;5.982;2022-11-20T05:38:33;39.33;;;22.73;;
36233;SDS011;43467;50.890;5.982;2022-11-20T05:41:09;49.47;;;23.42;;
36233;SDS011;43467;50.890;5.982;2022-11-20T05:43:37;46.60;;;24.02;;
36233;SDS011;43467;50.890;5.982;2022-11-20T05:46:04;50.60;;;26.13;;
36233;SDS011;43467;50.890;5.982;2022-11-20T05:48:31;59.70;;;26.13;;
36233;SDS011;43467;50.890;5.982;2022-11-20T05:51:01;48.22;;;24.33;;
36233;SDS011;43467;50.890;5.982;2022-11-20T05:53:28;54.28;;;27.95;;
36233;SDS011;43467;50.890;5.982;2022-11-20T05:56:01;53.72;;;26.35;;
36233;SDS011;43467;50.890;5.982;2022-11-20T05:58:46;57.70;;;27.65;;
36233;SDS011;43467;50.890;5.982;2022-11-20T06:01:30;55.83;;;26.85;;
36233;SDS011;43467;50.890;5.982;2022-11-20T06:03:55;61.35;;;28.60;;
36233;SDS011;43467;50.890;5.982;2022-11-20T06:06:21;55.97;;;28.35;;
36233;SDS011;43467;50.890;5.982;2022-11-20T06:08:46;60.10;;;27.23;;
36233;SDS011;43467;50.890;5.982;2022-11-20T06:11:13;57.72;;;28.40;;
36233;SDS011;43467;50.890;5.982;2022-11-20T06:13:39;59.67;;;28.15;;
36233;SDS011;43467;50.890;5.982;2022-11-20T06:16:05;52.58;;;26.70;;
36233;SDS011;43467;50.890;5.982;2022-11-20T06:18:31;48.20;;;26.13;;
36233;SDS011;43467;50.890;5.982;2022-11-20T06:21:10;49.65;;;26.27;;
36233;SDS011;43467;50.890;5.982;2022-11-20T06:23:44;54.13;;;26.48;;
36233;SDS011;43467;50.890;5.982;2022-11-20T06:26:14;45.97;;;24.40;;
36233;SDS011;43467;50.890;5.982;2022-11-20T06:28:40;49.55;;;26.08;;
36233;SDS011;43467;50.890;5.982;2022-11-20T06:31:06;51.30;;;26.50;;
36233;SDS011;43467;50.890;5.982;2022-11-20T06:33:34;45.72;;;24.45;;
36233;SDS011;43467;50.890;5.982;2022-11-20T06:36:00;44.60;;;23.65;;
36233;SDS011;43467;50.890;5.982;2022-11-20T06:38:26;49.13;;;26.05;;
36233;SDS011;43467;50.890;5.982;2022-11-20T06:40:52;45.90;;;24.02;;
36233;SDS011;43467;50.890;5.982;2022-11-20T06:43:18;43.70;;;24.40;;
36233;SDS011;43467;50.890;5.982;2022-11-20T06:45:44;42.35;;;23.85;;
36233;SDS011;43467;50.890;5.982;2022-11-20T06:48:09;51.47;;;25.50;;
36233;SDS011;43467;50.890;5.982;2022-11-20T06:50:36;40.65;;;23.92;;
36233;SDS011;43467;50.890;5.982;2022-11-20T06:53:02;41.63;;;23.73;;
36233;SDS011;43467;50.890;5.982;2022-11-20T06:55:29;47.00;;;23.67;;
36233;SDS011;43467;50.890;5.982;2022-11-20T06:57:55;47.83;;;24.95;;
36233;SDS011;43467;50.890;5.982;2022-11-20T07:00:21;44.42;;;23.50;;
36233;SDS011;43467;50.890;5.982;2022-11-20T07:02:46;43.60;;;24.10;;
36233;SDS011;43467;50.890;5.982;2022-11-20T07:05:11;41.13;;;23.83;;
36233;SDS011;43467;50.890;5.982;2022-11-20T07:07:37;41.35;;;24.35;;
36233;SDS011;43467;50.890;5.982;2022-11-20T07:10:02;45.30;;;25.02;;
36233;SDS011;43467;50.890;5.982;2022-11-20T07:12:28;44.60;;;23.83;;
36233;SDS011;43467;50.890;5.982;2022-11-20T07:14:53;49.08;;;24.23;;
36233;SDS011;43467;50.890;5.982;2022-11-20T07:17:19;46.25;;;24.65;;
36233;SDS011;43467;50.890;5.982;2022-11-20T07:19:44;49.92;;;24.08;;
36233;SDS011;43467;50.890;5.982;2022-11-20T07:22:09;45.10;;;24.92;;
36233;SDS011;43467;50.890;5.982;2022-11-20T07:24:35;47.03;;;25.10;;
36233;SDS011;43467;50.890;5.982;2022-11-20T07:27:00;55.92;;;26.40;;
36233;SDS011;43467;50.890;5.982;2022-11-20T07:29:25;48.15;;;25.30;;
36233;SDS011;43467;50.890;5.982;2022-11-20T07:31:51;51.15;;;25.40;;
36233;SDS011;43467;50.890;5.982;2022-11-20T07:34:16;44.90;;;25.48;;
36233;SDS011;43467;50.890;5.982;2022-11-20T07:36:41;42.65;;;24.60;;
36233;SDS011;43467;50.890;5.982;2022-11-20T07:39:07;55.60;;;26.45;;
36233;SDS011;43467;50.890;5.982;2022-11-20T07:41:32;51.55;;;25.60;;
36233;SDS011;43467;50.890;5.982;2022-11-20T07:43:58;45.55;;;23.75;;
36233;SDS011;43467;50.890;5.982;2022-11-20T07:46:23;40.03;;;23.52;;
36233;SDS011;43467;50.890;5.982;2022-11-20T07:48:48;46.38;;;23.80;;
36233;SDS011;43467;50.890;5.982;2022-11-20T07:51:14;47.58;;;25.52;;
36233;SDS011;43467;50.890;5.982;2022-11-20T07:53:39;47.92;;;24.45;;
36233;SDS011;43467;50.890;5.982;2022-11-20T07:56:05;55.38;;;27.05;;
36233;SDS011;43467;50.890;5.982;2022-11-20T07:58:30;52.63;;;26.25;;
36233;SDS011;43467;50.890;5.982;2022-11-20T08:00:58;51.13;;;26.13;;
36233;SDS011;43467;50.890;5.982;2022-11-20T08:03:27;48.10;;;25.30;;
36233;SDS011;43467;50.890;5.982;2022-11-20T08:05:52;51.08;;;27.60;;
36233;SDS011;43467;50.890;5.982;2022-11-20T08:08:17;48.42;;;23.85;;
36233;SDS011;43467;50.890;5.982;2022-11-20T08:10:43;51.58;;;27.17;;
36233;SDS011;43467;50.890;5.982;2022-11-20T08:13:08;56.80;;;28.17;;
36233;SDS011;43467;50.890;5.982;2022-11-20T08:15:52;52.78;;;25.73;;
36233;SDS011;43467;50.890;5.982;2022-11-20T08:18:17;45.92;;;23.83;;
36233;SDS011;43467;50.890;5.982;2022-11-20T08:20:43;48.97;;;24.65;;
36233;SDS011;43467;50.890;5.982;2022-11-20T08:23:09;49.20;;;24.88;;
36233;SDS011;43467;50.890;5.982;2022-11-20T08:25:35;47.15;;;25.08;;
36233;SDS011;43467;50.890;5.982;2022-11-20T08:28:02;47.03;;;24.60;;
36233;SDS011;43467;50.890;5.982;2022-11-20T08:30:30;46.10;;;24.48;;
36233;SDS011;43467;50.890;5.982;2022-11-20T08:32:59;44.92;;;23.83;;
36233;SDS011;43467;50.890;5.982;2022-11-20T08:35:33;44.13;;;23.55;;
36233;SDS011;43467;50.890;5.982;2022-11-20T08:38:00;41.70;;;23.63;;
36233;SDS011;43467;50.890;5.982;2022-11-20T08:40:26;36.97;;;20.88;;
36233;SDS011;43467;50.890;5.982;2022-11-20T08:42:51;42.40;;;22.50;;
36233;SDS011;43467;50.890;5.982;2022-11-20T08:45:18;41.45;;;23.23;;
36233;SDS011;43467;50.890;5.982;2022-11-20T08:47:44;44.08;;;22.92;;
36233;SDS011;43467;50.890;5.982;2022-11-20T08:50:10;43.33;;;23.40;;
36233;SDS011;43467;50.890;5.982;2022-11-20T08:52:36;44.22;;;24.02;;
36233;SDS011;43467;50.890;5.982;2022-11-20T08:55:03;42.10;;;22.77;;
36233;SDS011;43467;50.890;5.982;2022-11-20T08:57:31;45.15;;;23.80;;
36233;SDS011;43467;50.890;5.982;2022-11-20T08:59:57;40.03;;;23.02;;
36233;SDS011;43467;50.890;5.982;2022-11-20T09:02:22;43.60;;;21.90;;
36233;SDS011;43467;50.890;5.982;2022-11-20T09:04:47;41.25;;;22.17;;
36233;SDS011;43467;50.890;5.982;2022-11-20T09:07:13;46.38;;;22.92;;
36233;SDS011;43467;50.890;5.982;2022-11-20T09:09:38;42.92;;;23.15;;
36233;SDS011;43467;50.890;5.982;2022-11-20T09:12:04;38.53;;;22.10;;
36233;SDS011;43467;50.890;5.982;2022-11-20T09:14:29;45.67;;;24.42;;
36233;SDS011;43467;50.890;5.982;2022-11-20T09:16:55;40.58;;;22.13;;
36233;SDS011;43467;50.890;5.982;2022-11-20T09:19:21;44.35;;;23.38;;
36233;SDS011;43467;50.890;5.982;2022-11-20T09:21:46;44.40;;;23.73;;
36233;SDS011;43467;50.890;5.982;2022-11-20T09:24:12;43.47;;;22.92;;
36233;SDS011;43467;50.890;5.982;2022-11-20T09:26:37;46.50;;;23.08;;
36233;SDS011;43467;50.890;5.982;2022-11-20T09:29:02;47.10;;;22.83;;
36233;SDS011;43467;50.890;5.982;2022-11-20T09:31:28;43.47;;;23.30;;
36233;SDS011;43467;50.890;5.982;2022-11-20T09:33:53;39.70;;;22.35;;
36233;SDS011;43467;50.890;5.982;2022-11-20T09:36:19;39.13;;;22.17;;
36233;SDS011;43467;50.890;5.982;2022-11-20T09:38:45;41.80;;;23.20;;
36233;SDS011;43467;50.890;5.982;2022-11-20T09:47:01;44.20;;;23.58;;
36233;SDS011;43467;50.890;5.982;2022-11-20T09:49:51;42.97;;;22.58;;
36233;SDS011;43467;50.890;5.982;2022-11-20T09:52:47;43.45;;;23.48;;
36233;SDS011;43467;50.890;5.982;2022-11-20T09:55:15;46.03;;;23.60;;
36233;SDS011;43467;50.890;5.982;2022-11-20T09:57:42;41.50;;;22.75;;
36233;SDS011;43467;50.890;5.982;2022-11-20T10:00:12;42.25;;;22.38;;
36233;SDS011;43467;50.890;5.982;2022-11-20T10:05:18;41.35;;;22.23;;
36233;SDS011;43467;50.890;5.982;2022-11-20T10:24:01;42.03;;;22.48;;
36233;SDS011;43467;50.890;5.982;2022-11-20T10:29:17;46.63;;;22.77;;
36233;SDS011;43467;50.890;5.982;2022-11-20T10:31:51;54.47;;;25.33;;
36233;SDS011;43467;50.890;5.982;2022-11-20T10:36:55;56.50;;;26.73;;
36233;SDS011;43467;50.890;5.982;2022-11-20T10:42:39;54.58;;;26.95;;
36233;SDS011;43467;50.890;5.982;2022-11-20T10:47:50;52.17;;;24.98;;
36233;SDS011;43467;50.890;5.982;2022-11-20T10:50:20;59.60;;;27.85;;
36233;SDS011;43467;50.890;5.982;2022-11-20T10:55:27;51.97;;;25.25;;
36233;SDS011;43467;50.890;5.982;2022-11-20T10:58:01;50.10;;;23.92;;
36233;SDS011;43467;50.890;5.982;2022-11-20T11:00:35;48.38;;;23.98;;
36233;SDS011;43467;50.890;5.982;2022-11-20T11:03:00;55.22;;;26.50;;
36233;SDS011;43467;50.890;5.982;2022-11-20T11:08:03;51.00;;;26.10;;
36233;SDS011;43467;50.890;5.982;2022-11-20T11:10:41;51.15;;;24.90;;
36233;SDS011;43467;50.890;5.982;2022-11-20T11:15:51;48.53;;;22.52;;
36233;SDS011;43467;50.890;5.982;2022-11-20T11:18:27;43.85;;;22.95;;
36233;SDS011;43467;50.890;5.982;2022-11-20T11:20:59;46.10;;;22.42;;
36233;SDS011;43467;50.890;5.982;2022-11-20T11:23:34;40.42;;;20.73;;
36233;SDS011;43467;50.890;5.982;2022-11-20T11:26:02;41.78;;;21.92;;
36233;SDS011;43467;50.890;5.982;2022-11-20T11:28:29;47.08;;;24.42;;
36233;SDS011;43467;50.890;5.982;2022-11-20T11:30:55;48.92;;;22.75;;
36233;SDS011;43467;50.890;5.982;2022-11-20T11:33:22;47.58;;;23.38;;
36233;SDS011;43467;50.890;5.982;2022-11-20T11:35:50;41.60;;;21.35;;
36233;SDS011;43467;50.890;5.982;2022-11-20T11:38:39;40.40;;;21.33;;
36233;SDS011;43467;50.890;5.982;2022-11-20T11:41:09;40.17;;;21.42;;
36233;SDS011;43467;50.890;5.982;2022-11-20T11:43:51;42.08;;;21.17;;
36233;SDS011;43467;50.890;5.982;2022-11-20T11:46:38;35.13;;;19.45;;
36233;SDS011;43467;50.890;5.982;2022-11-20T11:54:19;36.25;;;19.55;;
36233;SDS011;43467;50.890;5.982;2022-11-20T11:56:50;40.35;;;21.60;;
36233;SDS011;43467;50.890;5.982;2022-11-20T11:59:27;39.05;;;20.27;;
36233;SDS011;43467;50.890;5.982;2022-11-20T12:02:12;39.45;;;20.98;;
36233;SDS011;43467;50.890;5.982;2022-11-20T12:04:52;32.53;;;19.13;;
36233;SDS011;43467;50.890;5.982;2022-11-20T12:07:41;40.45;;;20.98;;
36233;SDS011;43467;50.890;5.982;2022-11-20T12:10:55;35.22;;;19.77;;
36233;SDS011;43467;50.890;5.982;2022-11-20T12:13:18;35.80;;;19.55;;
36233;SDS011;43467;50.890;5.982;2022-11-20T12:15:46;36.10;;;19.55;;
36233;SDS011;43467;50.890;5.982;2022-11-20T12:18:17;38.90;;;20.02;;
36233;SDS011;43467;50.890;5.982;2022-11-20T12:39:42;18.45;;;10.73;;
36233;SDS011;43467;50.890;5.982;2022-11-20T12:50:48;17.13;;;9.65;;
36233;SDS011;43467;50.890;5.982;2022-11-20T13:01:50;14.48;;;8.38;;
36233;SDS011;43467;50.890;5.982;2022-11-20T13:07:01;13.45;;;7.45;;
36233;SDS011;43467;50.890;5.982;2022-11-20T13:09:28;11.77;;;7.20;;
36233;SDS011;43467;50.890;5.982;2022-11-20T13:12:14;15.15;;;6.85;;
36233;SDS011;43467;50.890;5.982;2022-11-20T13:18:13;10.50;;;5.68;;
36233;SDS011;43467;50.890;5.982;2022-11-20T13:20:43;14.43;;;6.47;;
36233;SDS011;43467;50.890;5.982;2022-11-20T13:23:09;10.50;;;5.75;;
36233;SDS011;43467;50.890;5.982;2022-11-20T13:25:36;10.60;;;5.90;;
36233;SDS011;43467;50.890;5.982;2022-11-20T13:28:04;11.57;;;5.80;;
36233;SDS011;43467;50.890;5.982;2022-11-20T13:30:30;7.30;;;4.47;;
36233;SDS011;43467;50.890;5.982;2022-11-20T13:32:58;8.18;;;5.15;;
36233;SDS011;43467;50.890;5.982;2022-11-20T13:38:14;8.57;;;4.40;;
36233;SDS011;43467;50.890;5.982;2022-11-20T13:46:00;11.05;;;3.90;;
36233;SDS011;43467;50.890;5.982;2022-11-20T13:48:32;9.05;;;4.25;;
36233;SDS011;43467;50.890;5.982;2022-11-20T14:01:51;6.55;;;3.50;;
36233;SDS011;43467;50.890;5.982;2022-11-20T14:04:18;5.40;;;3.30;;
36233;SDS011;43467;50.890;5.982;2022-11-20T14:06:50;6.50;;;3.00;;
36233;SDS011;43467;50.890;5.982;2022-11-20T14:09:26;7.82;;;3.30;;
36233;SDS011;43467;50.890;5.982;2022-11-20T14:11:53;5.85;;;2.92;;
36233;SDS011;43467;50.890;5.982;2022-11-20T14:14:20;3.90;;;2.35;;
36233;SDS011;43467;50.890;5.982;2022-11-20T14:16:47;5.22;;;2.88;;
36233;SDS011;43467;50.890;5.982;2022-11-20T14:21:46;2.92;;;1.60;;
36233;SDS011;43467;50.890;5.982;2022-11-20T14:24:13;7.38;;;2.15;;
36233;SDS011;43467;50.890;5.982;2022-11-20T14:26:43;5.88;;;1.90;;
36233;SDS011;43467;50.890;5.982;2022-11-20T14:29:13;3.03;;;1.73;;
36233;SDS011;43467;50.890;5.982;2022-11-20T14:31:42;7.40;;;2.00;;
36233;SDS011;43467;50.890;5.982;2022-11-20T14:34:16;3.88;;;1.98;;
36233;SDS011;43467;50.890;5.982;2022-11-20T14:36:45;8.68;;;3.17;;
36233;SDS011;43467;50.890;5.982;2022-11-20T14:39:11;4.28;;;1.92;;
36233;SDS011;43467;50.890;5.982;2022-11-20T14:41:50;5.23;;;1.97;;
36233;SDS011;43467;50.890;5.982;2022-11-20T14:44:17;7.50;;;2.50;;
36233;SDS011;43467;50.890;5.982;2022-11-20T14:46:45;5.50;;;2.30;;
36233;SDS011;43467;50.890;5.982;2022-11-20T14:49:10;6.03;;;2.90;;
36233;SDS011;43467;50.890;5.982;2022-11-20T14:51:37;8.93;;;3.33;;
36233;SDS011;43467;50.890;5.982;2022-11-20T14:54:14;6.05;;;2.83;;
36233;SDS011;43467;50.890;5.982;2022-11-20T14:56:41;8.95;;;3.17;;
36233;SDS011;43467;50.890;5.982;2022-11-20T14:59:22;6.28;;;2.75;;
36233;SDS011;43467;50.890;5.982;2022-11-20T15:01:58;4.22;;;2.60;;
36233;SDS011;43467;50.890;5.982;2022-11-20T15:04:51;8.18;;;2.63;;
36233;SDS011;43467;50.890;5.982;2022-11-20T15:07:28;6.75;;;2.97;;
36233;SDS011;43467;50.890;5.982;2022-11-20T15:10:03;4.60;;;2.47;;
36233;SDS011;43467;50.890;5.982;2022-11-20T15:12:34;6.22;;;2.65;;
36233;SDS011;43467;50.890;5.982;2022-11-20T15:15:02;4.38;;;2.50;;
36233;SDS011;43467;50.890;5.982;2022-11-20T15:17:28;3.85;;;2.20;;
36233;SDS011;43467;50.890;5.982;2022-11-20T15:19:55;6.22;;;2.83;;
36233;SDS011;43467;50.890;5.982;2022-11-20T15:22:20;6.00;;;2.70;;
36233;SDS011;43467;50.890;5.982;2022-11-20T15:24:46;4.28;;;2.53;;
36233;SDS011;43467;50.890;5.982;2022-11-20T15:27:11;5.93;;;2.30;;
36233;SDS011;43467;50.890;5.982;2022-11-20T15:29:37;5.97;;;2.50;;
36233;SDS011;43467;50.890;5.982;2022-11-20T15:32:02;6.72;;;3.10;;
36233;SDS011;43467;50.890;5.982;2022-11-20T15:34:28;5.93;;;3.15;;
36233;SDS011;43467;50.890;5.982;2022-11-20T15:36:54;5.95;;;2.97;;
36233;SDS011;43467;50.890;5.982;2022-11-20T15:39:19;7.40;;;3.13;;
36233;SDS011;43467;50.890;5.982;2022-11-20T15:41:45;8.13;;;3.28;;
36233;SDS011;43467;50.890;5.982;2022-11-20T15:44:11;3.60;;;2.22;;
36233;SDS011;43467;50.890;5.982;2022-11-20T15:46:37;5.88;;;2.80;;
36233;SDS011;43467;50.890;5.982;2022-11-20T15:49:11;11.48;;;2.63;;
36233;SDS011;43467;50.890;5.982;2022-11-20T15:51:38;6.20;;;2.67;;
36233;SDS011;43467;50.890;5.982;2022-11-20T15:54:14;8.02;;;2.53;;
36233;SDS011;43467;50.890;5.982;2022-11-20T15:56:45;7.15;;;3.25;;
36233;SDS011;43467;50.890;5.982;2022-11-20T15:59:11;4.55;;;2.38;;
36233;SDS011;43467;50.890;5.982;2022-11-20T16:01:39;6.38;;;2.67;;
36233;SDS011;43467;50.890;5.982;2022-11-20T16:04:05;4.72;;;2.97;;
36233;SDS011;43467;50.890;5.982;2022-11-20T16:06:34;3.65;;;2.33;;
36233;SDS011;43467;50.890;5.982;2022-11-20T16:08:59;6.15;;;3.08;;
36233;SDS011;43467;50.890;5.982;2022-11-20T16:11:25;8.57;;;4.70;;
36233;SDS011;43467;50.890;5.982;2022-11-20T16:13:50;6.25;;;3.65;;
36233;SDS011;43467;50.890;5.982;2022-11-20T16:16:35;6.10;;;3.70;;
36233;SDS011;43467;50.890;5.982;2022-11-20T16:19:02;2.90;;;2.17;;
36233;SDS011;43467;50.890;5.982;2022-11-20T16:21:28;4.65;;;2.50;;
36233;SDS011;43467;50.890;5.982;2022-11-20T16:24:00;4.05;;;2.00;;
36233;SDS011;43467;50.890;5.982;2022-11-20T16:26:30;6.85;;;2.50;;
36233;SDS011;43467;50.890;5.982;2022-11-20T16:28:55;4.72;;;2.70;;
36233;SDS011;43467;50.890;5.982;2022-11-20T16:31:21;4.38;;;1.98;;
36233;SDS011;43467;50.890;5.982;2022-11-20T16:33:50;3.92;;;1.92;;